createdAt,value
2019-02-28T00:01:36.000Z,28
2019-02-28T00:03:36.000Z,28
2019-02-28T00:04:36.000Z,28
2019-02-28T00:05:36.000Z,28.1
2019-02-28T00:07:36.000Z,28.1
2019-02-28T00:08:36.000Z,28.1
2019-02-28T00:10:20.000Z,28.2
2019-02-28T00:11:36.000Z,28.2
2019-02-28T00:13:21.000Z,28.1
2019-02-28T00:14:36.000Z,28
2019-02-28T00:15:36.000Z,28
2019-02-28T00:16:36.000Z,28
2019-02-28T00:18:36.000Z,28.1
2019-02-28T00:20:35.000Z,28.1
2019-02-28T00:21:36.000Z,28.1
2019-02-28T00:23:21.000Z,28.1
2019-02-28T00:24:35.000Z,28
2019-02-28T00:25:36.000Z,28
2019-02-28T00:27:21.000Z,27.9
2019-02-28T00:28:21.000Z,27.9
2019-02-28T00:29:35.000Z,27.8
2019-02-28T00:30:36.000Z,27.8
2019-02-28T00:32:20.000Z,27.8
2019-02-28T00:33:35.000Z,27.7
2019-02-28T00:34:36.000Z,27.7
2019-02-28T00:36:36.000Z,27.8
2019-02-28T00:38:35.000Z,27.7
2019-02-28T00:40:36.000Z,27.7
2019-02-28T00:42:36.000Z,27.6
2019-02-28T00:44:35.000Z,27.6
2019-02-28T00:45:36.000Z,27.6
2019-02-28T00:47:36.000Z,27.7
2019-02-28T00:49:23.000Z,27.7
2019-02-28T00:50:35.000Z,27.6
2019-02-28T00:51:36.000Z,27.6
2019-02-28T00:53:36.000Z,27.8
2019-02-28T00:55:36.000Z,27.7
2019-02-28T00:57:21.000Z,27.7
2019-02-28T00:58:35.000Z,27.6
2019-02-28T00:59:36.000Z,27.6
2019-02-28T01:01:36.000Z,27.7
2019-02-28T01:03:21.000Z,27.8
2019-02-28T01:04:35.000Z,27.6
2019-02-28T01:05:36.000Z,27.6
2019-02-28T01:07:36.000Z,27.6
2019-02-28T01:09:35.000Z,27.7
2019-02-28T01:10:36.000Z,27.7
2019-02-28T01:12:20.000Z,27.7
2019-02-28T01:13:36.000Z,27.8
2019-02-28T01:15:36.000Z,27.8
2019-02-28T01:17:21.000Z,27.8
2019-02-28T01:18:36.000Z,27.7
2019-02-28T01:19:36.000Z,27.7
2019-02-28T01:21:21.000Z,27.8
2019-02-28T01:23:36.000Z,27.6
2019-02-28T01:25:36.000Z,27.5
2019-02-28T01:27:36.000Z,27.4
2019-02-28T01:29:36.000Z,27.4
2019-02-28T01:30:36.000Z,27.4
2019-02-28T01:32:36.000Z,27.4
2019-02-28T01:34:36.000Z,27.4
2019-02-28T01:35:36.000Z,27.5
2019-02-28T01:37:36.000Z,27.5
2019-02-28T01:39:36.000Z,27.5
2019-02-28T01:40:36.000Z,27.5
2019-02-28T01:42:36.000Z,27.6
2019-02-28T01:44:36.000Z,27.5
2019-02-28T01:45:36.000Z,27.6
2019-02-28T01:46:36.000Z,27.6
2019-02-28T01:47:36.000Z,27.8
2019-02-28T01:49:36.000Z,27.9
2019-02-28T01:50:36.000Z,27.9
2019-02-28T01:52:36.000Z,27.9
2019-02-28T01:53:36.000Z,27.9
2019-02-28T01:55:36.000Z,27.8
2019-02-28T01:56:36.000Z,27.8
2019-02-28T01:58:36.000Z,27.7
2019-02-28T02:00:23.000Z,27.7
2019-02-28T02:01:36.000Z,27.7
2019-02-28T02:02:36.000Z,27.7
2019-02-28T02:04:36.000Z,27.7
2019-02-28T02:06:21.000Z,27.7
2019-02-28T02:07:36.000Z,27.6
2019-02-28T02:08:36.000Z,27.6
2019-02-28T02:10:36.000Z,27.5
2019-02-28T02:12:36.000Z,27.5
2019-02-28T02:13:36.000Z,27.5
2019-02-28T02:15:20.000Z,27.5
2019-02-28T02:16:21.000Z,27.6
2019-02-28T02:17:36.000Z,27.5
2019-02-28T02:19:36.000Z,27.5
2019-02-28T02:21:36.000Z,27.4
2019-02-28T02:22:36.000Z,27.4
2019-02-28T02:24:21.000Z,27.5
2019-02-28T02:25:36.000Z,27.5
2019-02-28T02:27:36.000Z,27.4
2019-02-28T02:29:20.000Z,27.3
2019-02-28T02:30:36.000Z,27.3
2019-02-28T02:32:36.000Z,27.3
2019-02-28T02:33:36.000Z,27.3
2019-02-28T02:35:36.000Z,27.2
2019-02-28T02:37:36.000Z,27.2
2019-02-28T02:38:36.000Z,27.2
2019-02-28T02:40:21.000Z,27.2
2019-02-28T02:41:36.000Z,27.2
2019-02-28T02:42:36.000Z,27.3
2019-02-28T02:44:36.000Z,27.4
2019-02-28T02:46:36.000Z,27.4
2019-02-28T02:48:36.000Z,27.4
2019-02-28T02:50:36.000Z,27.4
2019-02-28T02:52:21.000Z,27.4
2019-02-28T02:54:36.000Z,27.2
2019-02-28T02:56:36.000Z,27.1
2019-02-28T02:57:36.000Z,27.1
2019-02-28T02:59:36.000Z,27.1
2019-02-28T03:01:21.000Z,27
2019-02-28T03:02:36.000Z,27
2019-02-28T03:03:36.000Z,27
2019-02-28T03:05:36.000Z,27
2019-02-28T03:06:36.000Z,27
2019-02-28T03:08:36.000Z,27.2
2019-02-28T03:10:36.000Z,27.1
2019-02-28T03:12:36.000Z,27.1
2019-02-28T03:13:36.000Z,27.1
2019-02-28T03:15:21.000Z,27.2
2019-02-28T03:16:36.000Z,27.1
2019-02-28T03:17:36.000Z,27.2
2019-02-28T03:18:36.000Z,27.3
2019-02-28T03:20:36.000Z,27.5
2019-02-28T03:22:27.000Z,27.4
2019-02-28T03:23:36.000Z,27.3
2019-02-28T03:25:21.000Z,27.1
2019-02-28T03:26:36.000Z,27
2019-02-28T03:28:36.000Z,26.9
2019-02-28T03:29:36.000Z,26.9
2019-02-28T03:31:36.000Z,26.9
2019-02-28T03:33:21.000Z,27
2019-02-28T03:34:36.000Z,26.9
2019-02-28T03:36:36.000Z,26.9
2019-02-28T03:38:36.000Z,27
2019-02-28T03:40:36.000Z,27
2019-02-28T03:41:36.000Z,27
2019-02-28T03:43:21.000Z,27
2019-02-28T03:44:36.000Z,27
2019-02-28T03:46:21.000Z,27
2019-02-28T03:47:21.000Z,27
2019-02-28T03:48:36.000Z,27
2019-02-28T03:50:21.000Z,27
2019-02-28T03:51:36.000Z,26.9
2019-02-28T03:52:36.000Z,26.9
2019-02-28T03:54:36.000Z,27
2019-02-28T03:56:36.000Z,27.1
2019-02-28T03:58:36.000Z,27.1
2019-02-28T04:00:36.000Z,27.1
2019-02-28T04:02:21.000Z,27.1
2019-02-28T04:03:36.000Z,27
2019-02-28T04:04:36.000Z,27.1
2019-02-28T04:06:36.000Z,27.2
2019-02-28T04:08:36.000Z,27
2019-02-28T04:10:21.000Z,27
2019-02-28T04:11:36.000Z,26.9
2019-02-28T04:12:36.000Z,26.9
2019-02-28T04:14:36.000Z,27
2019-02-28T04:15:36.000Z,27.1
2019-02-28T04:16:36.000Z,27.2
2019-02-28T04:18:36.000Z,27.2
2019-02-28T04:20:21.000Z,27.2
2019-02-28T04:21:36.000Z,27
2019-02-28T04:23:36.000Z,27
2019-02-28T04:24:36.000Z,27
2019-02-28T04:26:36.000Z,27.1
2019-02-28T04:28:36.000Z,27.1
2019-02-28T04:30:36.000Z,27.1
2019-02-28T04:32:21.000Z,27
2019-02-28T04:33:36.000Z,27
2019-02-28T04:34:36.000Z,26.9
2019-02-28T04:36:36.000Z,26.9
2019-02-28T04:37:36.000Z,26.9
2019-02-28T04:39:22.000Z,27
2019-02-28T04:40:26.000Z,27
2019-02-28T04:41:36.000Z,27
2019-02-28T04:42:36.000Z,27
2019-02-28T04:44:36.000Z,27
2019-02-28T04:46:36.000Z,27
2019-02-28T04:47:36.000Z,27
2019-02-28T04:49:22.000Z,27.1
2019-02-28T04:50:36.000Z,27
2019-02-28T04:52:36.000Z,27
2019-02-28T04:53:36.000Z,27
2019-02-28T04:55:36.000Z,27
2019-02-28T04:56:36.000Z,27
2019-02-28T04:58:22.000Z,27
2019-02-28T04:59:36.000Z,26.9
2019-02-28T05:00:36.000Z,27
2019-02-28T05:02:36.000Z,27
2019-02-28T05:04:36.000Z,27
2019-02-28T05:05:36.000Z,27.1
2019-02-28T05:06:36.000Z,27.2
2019-02-28T05:08:36.000Z,27.2
2019-02-28T05:10:22.000Z,27.1
2019-02-28T05:11:36.000Z,27
2019-02-28T05:12:37.000Z,27
2019-02-28T05:14:22.000Z,27
2019-02-28T05:15:36.000Z,27
2019-02-28T05:17:22.000Z,26.8
2019-02-28T05:18:36.000Z,26.8
2019-02-28T05:19:36.000Z,26.8
2019-02-28T05:21:36.000Z,26.9
2019-02-28T05:23:36.000Z,26.9
2019-02-28T05:24:36.000Z,26.9
2019-02-28T05:26:22.000Z,27
2019-02-28T05:27:24.000Z,27
2019-02-28T05:28:36.000Z,26.9
2019-02-28T05:30:37.000Z,26.9
2019-02-28T05:32:36.000Z,26.9
2019-02-28T05:33:36.000Z,26.9
2019-02-28T05:35:21.000Z,26.9
2019-02-28T05:36:36.000Z,26.7
2019-02-28T05:38:21.000Z,26.6
2019-02-28T05:39:36.000Z,26.6
2019-02-28T05:41:36.000Z,26.6
2019-02-28T05:43:36.000Z,26.7
2019-02-28T05:44:36.000Z,26.8
2019-02-28T05:46:21.000Z,26.8
2019-02-28T05:47:36.000Z,26.8
2019-02-28T05:49:36.000Z,26.7
2019-02-28T05:51:21.000Z,26.6
2019-02-28T05:52:36.000Z,26.6
2019-02-28T05:53:36.000Z,26.6
2019-02-28T05:54:36.000Z,26.7
2019-02-28T05:56:36.000Z,26.8
2019-02-28T05:57:36.000Z,26.8
2019-02-28T05:59:21.000Z,26.9
2019-02-28T06:00:36.000Z,26.8
2019-02-28T06:02:22.000Z,26.7
2019-02-28T06:04:36.000Z,26.4
2019-02-28T06:06:36.000Z,26.3
2019-02-28T06:08:36.000Z,26.3
2019-02-28T06:10:21.000Z,26.3
2019-02-28T06:11:36.000Z,26.3
2019-02-28T06:12:36.000Z,26.3
2019-02-28T06:14:21.000Z,26.5
2019-02-28T06:16:36.000Z,26.5
2019-02-28T06:17:36.000Z,26.5
2019-02-28T06:19:36.000Z,26.6
2019-02-28T06:21:21.000Z,26.6
2019-02-28T06:22:36.000Z,26.5
2019-02-28T06:23:36.000Z,26.5
2019-02-28T06:25:21.000Z,26.7
2019-02-28T06:26:36.000Z,26.7
2019-02-28T06:28:36.000Z,26.7
2019-02-28T06:29:36.000Z,26.7
2019-02-28T06:31:36.000Z,26.8
2019-02-28T06:33:36.000Z,26.8
2019-02-28T06:35:36.000Z,26.8
2019-02-28T06:37:21.000Z,26.8
2019-02-28T06:38:36.000Z,26.7
2019-02-28T06:40:36.000Z,26.7
2019-02-28T06:42:36.000Z,26.8
2019-02-28T06:43:36.000Z,26.8
2019-02-28T06:45:36.000Z,26.9
2019-02-28T06:47:36.000Z,26.8
2019-02-28T06:49:36.000Z,26.7
2019-02-28T06:50:36.000Z,26.6
2019-02-28T06:51:36.000Z,26.7
2019-02-28T06:53:36.000Z,26.8
2019-02-28T06:54:36.000Z,26.9
2019-02-28T06:56:21.000Z,27
2019-02-28T06:57:36.000Z,26.9
2019-02-28T06:59:36.000Z,26.9
2019-02-28T07:01:21.000Z,26.9
2019-02-28T07:02:36.000Z,26.8
2019-02-28T07:03:36.000Z,26.9
2019-02-28T07:05:21.000Z,26.9
2019-02-28T07:06:36.000Z,26.9
2019-02-28T07:07:36.000Z,26.9
2019-02-28T07:09:21.000Z,27.1
2019-02-28T07:10:36.000Z,27.1
2019-02-28T07:11:36.000Z,27.2
2019-02-28T07:13:36.000Z,27.3
2019-02-28T07:15:21.000Z,27.3
2019-02-28T07:16:36.000Z,27.2
2019-02-28T07:18:36.000Z,27.1
2019-02-28T07:20:36.000Z,27.2
2019-02-28T07:21:36.000Z,27.3
2019-02-28T07:23:21.000Z,27.4
2019-02-28T07:24:36.000Z,27.4
2019-02-28T07:26:36.000Z,27.4
2019-02-28T07:28:36.000Z,27.4
2019-02-28T07:29:36.000Z,27.4
2019-02-28T07:31:21.000Z,27.5
2019-02-28T07:32:36.000Z,27.4
2019-02-28T07:33:36.000Z,27.4
2019-02-28T07:35:36.000Z,27.5
2019-02-28T07:36:36.000Z,27.6
2019-02-28T07:38:36.000Z,27.8
2019-02-28T07:40:36.000Z,27.9
2019-02-28T07:42:36.000Z,28
2019-02-28T07:44:21.000Z,28
2019-02-28T07:45:36.000Z,27.9
2019-02-28T07:47:36.000Z,28.1
2019-02-28T07:49:36.000Z,28.1
2019-02-28T07:50:36.000Z,28.2
2019-02-28T07:52:36.000Z,28.4
2019-02-28T07:54:36.000Z,28.5
2019-02-28T07:56:23.000Z,28.6
2019-02-28T07:58:21.000Z,28.7
2019-02-28T07:59:36.000Z,28.7
2019-02-28T08:00:36.000Z,28.8
2019-02-28T08:02:36.000Z,29
2019-02-28T08:04:36.000Z,29.3
2019-02-28T08:06:36.000Z,29.5
2019-02-28T08:08:21.000Z,29.8
2019-02-28T08:09:36.000Z,29.9
2019-02-28T08:11:36.000Z,30.1
2019-02-28T08:13:36.000Z,30.4
2019-02-28T08:15:21.000Z,30.6
2019-02-28T08:16:36.000Z,30.5
2019-02-28T08:18:36.000Z,30.7
2019-02-28T08:20:36.000Z,30.9
2019-02-28T08:21:36.000Z,31.2
2019-02-28T08:23:36.000Z,31.6
2019-02-28T08:25:36.000Z,31.9
2019-02-28T08:27:21.000Z,32
2019-02-28T08:28:36.000Z,32.1
2019-02-28T08:30:36.000Z,32.3
2019-02-28T08:32:36.000Z,32.5
2019-02-28T08:33:36.000Z,32.4
2019-02-28T08:35:36.000Z,32.5
2019-02-28T08:36:36.000Z,32.5
2019-02-28T08:38:36.000Z,31.9
2019-02-28T08:39:36.000Z,31.6
2019-02-28T08:41:21.000Z,31.2
2019-02-28T08:42:36.000Z,30.8
2019-02-28T08:44:23.000Z,30.3
2019-02-28T08:45:36.000Z,30
2019-02-28T08:47:36.000Z,29.9
2019-02-28T08:49:36.000Z,29.7
2019-02-28T08:51:21.000Z,29.5
2019-02-28T08:53:36.000Z,29
2019-02-28T08:55:20.000Z,28.9
2019-02-28T08:56:36.000Z,28.8
2019-02-28T08:58:36.000Z,28.7
2019-02-28T09:00:36.000Z,28.6
2019-02-28T09:01:36.000Z,28.5
2019-02-28T09:02:36.000Z,28.5
2019-02-28T09:04:36.000Z,28.5
2019-02-28T09:06:36.000Z,28.4
2019-02-28T09:07:36.000Z,28.3
2019-02-28T09:09:20.000Z,28.4
2019-02-28T09:10:36.000Z,28.4
2019-02-28T09:12:36.000Z,28.4
2019-02-28T09:13:36.000Z,28.5
2019-02-28T09:15:36.000Z,28.5
2019-02-28T09:16:36.000Z,28.6
2019-02-28T09:18:36.000Z,28.6
2019-02-28T09:19:36.000Z,28.7
2019-02-28T09:20:36.000Z,28.8
2019-02-28T09:21:36.000Z,28.9
2019-02-28T09:23:22.000Z,29
2019-02-28T09:24:36.000Z,28.9
2019-02-28T09:26:36.000Z,28.9
2019-02-28T09:27:36.000Z,28.9
2019-02-28T09:29:21.000Z,29
2019-02-28T09:30:36.000Z,29
2019-02-28T09:31:36.000Z,29
2019-02-28T09:33:21.000Z,29
2019-02-28T09:35:36.000Z,28.9
2019-02-28T09:36:36.000Z,28.9
2019-02-28T09:38:36.000Z,28.9
2019-02-28T09:40:36.000Z,28.9
2019-02-28T09:41:36.000Z,29
2019-02-28T09:43:21.000Z,29
2019-02-28T09:44:36.000Z,28.9
2019-02-28T09:45:36.000Z,28.9
2019-02-28T09:47:21.000Z,28.9
2019-02-28T09:48:36.000Z,28.8
2019-02-28T09:50:21.000Z,28.7
2019-02-28T09:51:36.000Z,28.6
2019-02-28T09:53:20.000Z,28.6
2019-02-28T09:54:21.000Z,28.5
2019-02-28T09:55:36.000Z,28.5
2019-02-28T09:57:21.000Z,28.5
2019-02-28T09:58:36.000Z,28.4
2019-02-28T10:00:36.000Z,28.5
2019-02-28T10:02:36.000Z,28.6
2019-02-28T10:04:36.000Z,28.6
2019-02-28T10:05:36.000Z,28.7
2019-02-28T10:07:21.000Z,28.8
2019-02-28T10:08:36.000Z,28.7
2019-02-28T10:09:36.000Z,28.7
2019-02-28T10:11:36.000Z,28.5
2019-02-28T10:13:36.000Z,28.5
2019-02-28T10:15:36.000Z,28.5
2019-02-28T10:17:21.000Z,28.5
2019-02-28T10:18:36.000Z,28.5
2019-02-28T10:20:21.000Z,28.3
2019-02-28T10:21:36.000Z,28.3
2019-02-28T10:23:21.000Z,28.2
2019-02-28T10:24:36.000Z,28.2
2019-02-28T10:25:36.000Z,28.3
2019-02-28T10:27:21.000Z,28.4
2019-02-28T10:28:36.000Z,28.5
2019-02-28T10:29:36.000Z,28.5
2019-02-28T10:31:21.000Z,28.6
2019-02-28T10:32:36.000Z,28.5
2019-02-28T10:33:36.000Z,28.6
2019-02-28T10:35:36.000Z,28.7
2019-02-28T10:36:36.000Z,28.7
2019-02-28T10:38:36.000Z,28.7
2019-02-28T10:39:36.000Z,28.8
2019-02-28T10:41:21.000Z,28.8
2019-02-28T10:42:36.000Z,28.8
2019-02-28T10:44:21.000Z,28.7
2019-02-28T10:45:36.000Z,28.7
2019-02-28T10:47:36.000Z,28.7
2019-02-28T10:49:21.000Z,28.8
2019-02-28T10:50:36.000Z,28.8
2019-02-28T10:52:21.000Z,28.8
2019-02-28T10:53:36.000Z,28.7
2019-02-28T10:55:21.000Z,28.6
2019-02-28T10:56:36.000Z,28.5
2019-02-28T10:58:36.000Z,28.5
2019-02-28T11:00:21.000Z,28.5
2019-02-28T11:01:36.000Z,28.5
2019-02-28T11:03:36.000Z,28.5
2019-02-28T11:04:36.000Z,28.6
2019-02-28T11:06:36.000Z,28.7
2019-02-28T11:08:36.000Z,28.9
2019-02-28T11:10:36.000Z,29
2019-02-28T11:11:36.000Z,29
2019-02-28T11:13:21.000Z,29.1
2019-02-28T11:14:36.000Z,29.1
2019-02-28T11:16:21.000Z,29.1
2019-02-28T11:17:36.000Z,29
2019-02-28T11:18:36.000Z,29
2019-02-28T11:20:21.000Z,29.1
2019-02-28T11:21:36.000Z,29
2019-02-28T11:22:36.000Z,29
2019-02-28T11:23:36.000Z,29
2019-02-28T11:25:36.000Z,29
2019-02-28T11:26:36.000Z,29
2019-02-28T11:28:21.000Z,29.1
2019-02-28T11:29:36.000Z,29.1
2019-02-28T11:30:36.000Z,29.1
2019-02-28T11:32:36.000Z,29.3
2019-02-28T11:34:21.000Z,29.3
2019-02-28T11:35:21.000Z,29.3
2019-02-28T11:36:36.000Z,29.2
2019-02-28T11:37:36.000Z,29.2
2019-02-28T11:39:36.000Z,29.3
2019-02-28T11:40:36.000Z,29.3
2019-02-28T11:42:21.000Z,29.3
2019-02-28T11:43:36.000Z,29.2
2019-02-28T11:45:24.000Z,29.1
2019-02-28T11:46:36.000Z,29
2019-02-28T11:48:36.000Z,29
2019-02-28T11:49:36.000Z,29
2019-02-28T11:50:36.000Z,29
2019-02-28T11:52:21.000Z,29
2019-02-28T11:53:36.000Z,28.9
2019-02-28T11:55:36.000Z,28.8
2019-02-28T11:57:36.000Z,28.8
2019-02-28T11:59:21.000Z,28.7
2019-02-28T12:00:36.000Z,28.6
2019-02-28T12:01:36.000Z,28.7
2019-02-28T12:03:36.000Z,28.8
2019-02-28T12:05:36.000Z,29
2019-02-28T12:07:36.000Z,29
2019-02-28T12:09:36.000Z,29
2019-02-28T12:11:36.000Z,28.9
2019-02-28T12:12:36.000Z,28.9
2019-02-28T12:14:20.000Z,29.1
2019-02-28T12:15:21.000Z,29.1
2019-02-28T12:16:36.000Z,29
2019-02-28T12:18:36.000Z,29
2019-02-28T12:20:20.000Z,29
2019-02-28T12:21:36.000Z,28.9
2019-02-28T12:23:22.000Z,28.7
2019-02-28T12:24:36.000Z,28.6
2019-02-28T12:25:36.000Z,28.6
2019-02-28T12:27:21.000Z,28.7
2019-02-28T12:28:36.000Z,28.7
2019-02-28T12:30:21.000Z,28.7
2019-02-28T12:32:36.000Z,28.5
2019-02-28T12:34:36.000Z,28.4
2019-02-28T12:35:36.000Z,28.5
2019-02-28T12:37:21.000Z,28.6
2019-02-28T12:38:36.000Z,28.6
2019-02-28T12:40:36.000Z,28.7
2019-02-28T12:42:36.000Z,28.9
2019-02-28T12:43:36.000Z,28.9
2019-02-28T12:45:21.000Z,29
2019-02-28T12:46:36.000Z,29
2019-02-28T12:47:36.000Z,29.1
2019-02-28T12:49:21.000Z,29.2
2019-02-28T12:50:36.000Z,29.1
2019-02-28T12:51:36.000Z,29.2
2019-02-28T12:53:21.000Z,29.2
2019-02-28T12:54:36.000Z,29.1
2019-02-28T12:55:36.000Z,29.1
2019-02-28T12:57:21.000Z,29.2
2019-02-28T12:59:36.000Z,29.1
2019-02-28T13:01:36.000Z,29.1
2019-02-28T13:02:36.000Z,29.2
2019-02-28T13:04:36.000Z,29.2
2019-02-28T13:06:21.000Z,29.4
2019-02-28T13:07:36.000Z,29.3
2019-02-28T13:08:36.000Z,29.3
2019-02-28T13:10:21.000Z,29.3
2019-02-28T13:11:36.000Z,29.3
2019-02-28T13:12:36.000Z,29.3
2019-02-28T13:14:36.000Z,29.4
2019-02-28T13:15:36.000Z,29.3
2019-02-28T13:16:36.000Z,29.4
2019-02-28T13:18:36.000Z,29.4
2019-02-28T13:19:36.000Z,29.4
2019-02-28T13:21:36.000Z,29.4
2019-02-28T13:23:36.000Z,29.4
2019-02-28T13:24:36.000Z,29.4
2019-02-28T13:26:36.000Z,29.5
2019-02-28T13:27:36.000Z,29.5
2019-02-28T13:29:21.000Z,29.5
2019-02-28T13:30:36.000Z,29.4
2019-02-28T13:32:36.000Z,29.2
2019-02-28T13:33:36.000Z,29.1
2019-02-28T13:35:21.000Z,29
2019-02-28T13:36:21.000Z,29
2019-02-28T13:37:36.000Z,29
2019-02-28T13:38:36.000Z,28.9
2019-02-28T13:40:21.000Z,28.9
2019-02-28T13:41:21.000Z,28.9
2019-02-28T13:42:36.000Z,28.9
2019-02-28T13:44:36.000Z,28.8
2019-02-28T13:46:36.000Z,28.7
2019-02-28T13:47:36.000Z,28.8
2019-02-28T13:49:36.000Z,29
2019-02-28T13:51:36.000Z,28.9
2019-02-28T13:52:36.000Z,28.9
2019-02-28T13:54:21.000Z,28.9
2019-02-28T13:55:36.000Z,28.8
2019-02-28T13:57:36.000Z,28.9
2019-02-28T13:59:36.000Z,28.9
2019-02-28T14:01:36.000Z,29
2019-02-28T14:03:21.000Z,29
2019-02-28T14:04:21.000Z,29
2019-02-28T14:05:36.000Z,29
2019-02-28T14:07:36.000Z,28.9
2019-02-28T14:09:21.000Z,28.9
2019-02-28T14:10:36.000Z,28.9
2019-02-28T14:11:36.000Z,28.9
2019-02-28T14:13:37.000Z,29
2019-02-28T14:15:21.000Z,29
2019-02-28T14:16:22.000Z,29.1
2019-02-28T14:17:36.000Z,29
2019-02-28T14:19:37.000Z,29
2019-02-28T14:21:36.000Z,29
2019-02-28T14:22:36.000Z,29
2019-02-28T14:23:37.000Z,29.1
2019-02-28T14:25:37.000Z,29.2
2019-02-28T14:27:22.000Z,29.1
2019-02-28T14:28:36.000Z,29
2019-02-28T14:29:37.000Z,29
2019-02-28T14:31:23.000Z,29.1
2019-02-28T14:33:37.000Z,29
2019-02-28T14:35:22.000Z,29
2019-02-28T14:36:36.000Z,28.9
2019-02-28T14:37:37.000Z,28.9
2019-02-28T14:39:37.000Z,29
2019-02-28T14:41:22.000Z,29
2019-02-28T14:42:36.000Z,28.9
2019-02-28T14:43:37.000Z,28.9
2019-02-28T14:45:37.000Z,29
2019-02-28T14:47:24.000Z,28.9
2019-02-28T14:48:36.000Z,28.8
2019-02-28T14:50:37.000Z,28.7
2019-02-28T14:52:36.000Z,28.7
2019-02-28T14:54:22.000Z,28.7
2019-02-28T14:55:36.000Z,28.7
2019-02-28T14:56:37.000Z,28.7
2019-02-28T14:58:22.000Z,28.7
2019-02-28T14:59:37.000Z,28.7
2019-02-28T15:01:37.000Z,28.7
2019-02-28T15:03:37.000Z,28.8
2019-02-28T15:04:37.000Z,28.9
2019-02-28T15:06:37.000Z,28.9
2019-02-28T15:08:37.000Z,29
2019-02-28T15:10:21.000Z,29
2019-02-28T15:11:37.000Z,29
2019-02-28T15:13:36.000Z,29.1
2019-02-28T15:15:37.000Z,29.1
2019-02-28T15:17:37.000Z,29.1
2019-02-28T15:19:21.000Z,29
2019-02-28T15:21:36.000Z,28.8
2019-02-28T15:23:36.000Z,28.7
2019-02-28T15:25:36.000Z,28.8
2019-02-28T15:27:21.000Z,28.9
2019-02-28T15:28:36.000Z,28.9
2019-02-28T15:30:36.000Z,28.9
2019-02-28T15:32:21.000Z,28.9
2019-02-28T15:33:36.000Z,28.8
2019-02-28T15:35:36.000Z,28.7
2019-02-28T15:37:36.000Z,28.7
2019-02-28T15:38:36.000Z,28.8
2019-02-28T15:40:24.000Z,28.9
2019-02-28T15:41:36.000Z,28.9
2019-02-28T15:42:36.000Z,29
2019-02-28T15:44:36.000Z,29
2019-02-28T15:46:21.000Z,29.1
2019-02-28T15:47:23.000Z,29.1
2019-02-28T15:48:36.000Z,29.1
2019-02-28T15:50:36.000Z,29.1
2019-02-28T15:52:36.000Z,29.1
2019-02-28T15:54:21.000Z,29
2019-02-28T15:55:36.000Z,28.9
2019-02-28T15:56:36.000Z,28.9
2019-02-28T15:58:36.000Z,28.9
2019-02-28T16:00:21.000Z,28.8
2019-02-28T16:02:36.000Z,28.6
2019-02-28T16:04:21.000Z,28.5
2019-02-28T16:05:36.000Z,28.4
2019-02-28T16:07:36.000Z,28.4
2019-02-28T16:09:21.000Z,28.5
2019-02-28T16:10:36.000Z,28.6
2019-02-28T16:11:36.000Z,28.7
2019-02-28T16:13:21.000Z,28.8
2019-02-28T16:14:36.000Z,28.7
2019-02-28T16:15:36.000Z,28.8
2019-02-28T16:17:36.000Z,28.9
2019-02-28T16:18:36.000Z,28.9
2019-02-28T16:20:21.000Z,29
2019-02-28T16:21:36.000Z,29
2019-02-28T16:23:21.000Z,28.9
2019-02-28T16:24:37.000Z,28.8
2019-02-28T16:26:21.000Z,28.7
2019-02-28T16:27:37.000Z,28.6
2019-02-28T16:28:37.000Z,28.6
2019-02-28T16:30:37.000Z,28.7
2019-02-28T16:31:37.000Z,28.8
2019-02-28T16:33:22.000Z,28.9
2019-02-28T16:35:37.000Z,28.8
2019-02-28T16:37:37.000Z,28.8
2019-02-28T16:38:37.000Z,28.9
2019-02-28T16:40:22.000Z,29
2019-02-28T16:41:37.000Z,28.9
2019-02-28T16:43:37.000Z,28.8
2019-02-28T16:45:37.000Z,28.8
2019-02-28T16:46:37.000Z,28.7
2019-02-28T16:48:37.000Z,28.8
2019-02-28T16:49:37.000Z,28.8
2019-02-28T16:50:37.000Z,28.9
2019-02-28T16:52:21.000Z,29
2019-02-28T16:53:23.000Z,29
2019-02-28T16:55:37.000Z,28.9
2019-02-28T16:56:37.000Z,29
2019-02-28T16:58:21.000Z,29
2019-02-28T16:59:37.000Z,28.9
2019-02-28T17:00:37.000Z,29
2019-02-28T17:02:37.000Z,28.9
2019-02-28T17:03:37.000Z,29
2019-02-28T17:05:22.000Z,29
2019-02-28T17:06:37.000Z,29
2019-02-28T17:07:37.000Z,29
2019-02-28T17:09:21.000Z,29
2019-02-28T17:10:37.000Z,29
2019-02-28T17:12:22.000Z,29
2019-02-28T17:13:37.000Z,28.9
2019-02-28T17:15:22.000Z,28.8
2019-02-28T17:16:37.000Z,28.7
2019-02-28T17:18:22.000Z,28.6
2019-02-28T17:19:37.000Z,28.5
2019-02-28T17:20:37.000Z,28.5
2019-02-28T17:22:22.000Z,28.6
2019-02-28T17:23:37.000Z,28.6
2019-02-28T17:24:37.000Z,28.5
2019-02-28T17:26:37.000Z,28.6
2019-02-28T17:27:37.000Z,28.6
2019-02-28T17:29:21.000Z,28.7
2019-02-28T17:30:36.000Z,28.7
2019-02-28T17:31:36.000Z,28.7
2019-02-28T17:33:36.000Z,28.9
2019-02-28T17:35:21.000Z,29
2019-02-28T17:36:36.000Z,28.9
2019-02-28T17:38:36.000Z,28.9
2019-02-28T17:40:21.000Z,28.8
2019-02-28T17:41:36.000Z,28.7
2019-02-28T17:43:21.000Z,28.5
2019-02-28T17:44:36.000Z,28.4
2019-02-28T17:46:21.000Z,28.3
2019-02-28T17:47:36.000Z,28.3
2019-02-28T17:48:36.000Z,28.3
2019-02-28T17:50:36.000Z,28.3
2019-02-28T17:52:36.000Z,28.2
2019-02-28T17:53:36.000Z,28.2
2019-02-28T17:55:36.000Z,28.4
2019-02-28T17:57:36.000Z,28.5
2019-02-28T17:59:36.000Z,28.5
2019-02-28T18:00:36.000Z,28.4
2019-02-28T18:02:21.000Z,28.4
2019-02-28T18:03:36.000Z,28.4
2019-02-28T18:05:29.000Z,28.4
2019-02-28T18:06:36.000Z,28.4
2019-02-28T18:08:36.000Z,28.4
2019-02-28T18:09:36.000Z,28.3
2019-02-28T18:11:36.000Z,28.4
2019-02-28T18:12:36.000Z,28.4
2019-02-28T18:14:36.000Z,28.6
2019-02-28T18:15:36.000Z,28.7
2019-02-28T18:17:21.000Z,28.8
2019-02-28T18:18:36.000Z,28.8
2019-02-28T18:19:36.000Z,28.8
2019-02-28T18:21:36.000Z,28.8
2019-02-28T18:23:21.000Z,28.7
2019-02-28T18:24:36.000Z,28.6
2019-02-28T18:26:26.000Z,28.4
2019-02-28T18:27:36.000Z,28.3
2019-02-28T18:29:36.000Z,28.2
2019-02-28T18:30:36.000Z,28.3
2019-02-28T18:32:36.000Z,28.4
2019-02-28T18:33:37.000Z,28.5
2019-02-28T18:35:37.000Z,28.6
2019-02-28T18:36:37.000Z,28.7
2019-02-28T18:38:37.000Z,28.6
2019-02-28T18:39:37.000Z,28.6
2019-02-28T18:41:37.000Z,28.7
2019-02-28T18:42:37.000Z,28.6
2019-02-28T18:44:37.000Z,28.6
2019-02-28T18:46:37.000Z,28.4
2019-02-28T18:47:37.000Z,28.4
2019-02-28T18:49:37.000Z,28.4
2019-02-28T18:51:37.000Z,28.5
2019-02-28T18:52:37.000Z,28.6
2019-02-28T18:54:37.000Z,28.6
2019-02-28T18:56:37.000Z,28.5
2019-02-28T18:58:37.000Z,28.5
2019-02-28T19:00:37.000Z,28.6
2019-02-28T19:02:37.000Z,28.6
2019-02-28T19:03:37.000Z,28.7
2019-02-28T19:04:37.000Z,28.8
2019-02-28T19:05:37.000Z,28.9
2019-02-28T19:06:37.000Z,29
2019-02-28T19:07:37.000Z,29
2019-02-28T19:09:37.000Z,29.1
2019-02-28T19:10:37.000Z,29.2
2019-02-28T19:11:37.000Z,29.2
2019-02-28T19:12:37.000Z,29.2
2019-02-28T19:13:37.000Z,29.2
2019-02-28T19:14:37.000Z,29.2
2019-02-28T19:16:37.000Z,29.2
2019-02-28T19:18:21.000Z,29.1
2019-02-28T19:19:37.000Z,29.1
2019-02-28T19:20:37.000Z,29.1
2019-02-28T19:22:37.000Z,29.1
2019-02-28T19:24:37.000Z,29
2019-02-28T19:26:37.000Z,28.9
2019-02-28T19:27:37.000Z,28.9
2019-02-28T19:28:37.000Z,29
2019-02-28T19:29:37.000Z,29
2019-02-28T19:31:37.000Z,29
2019-02-28T19:33:37.000Z,29
2019-02-28T19:34:37.000Z,29
2019-02-28T19:35:37.000Z,29
2019-02-28T19:37:37.000Z,29
2019-02-28T19:39:37.000Z,28.9
2019-02-28T19:41:37.000Z,28.9
2019-02-28T19:43:37.000Z,28.8
2019-02-28T19:44:37.000Z,28.8
2019-02-28T19:45:37.000Z,28.9
2019-02-28T19:47:37.000Z,28.9
2019-02-28T19:48:37.000Z,28.9
2019-02-28T19:50:37.000Z,28.9
2019-02-28T19:52:37.000Z,28.9
2019-02-28T19:54:37.000Z,28.8
2019-02-28T19:56:37.000Z,28.7
2019-02-28T19:57:37.000Z,28.7
2019-02-28T19:58:37.000Z,28.7
2019-02-28T20:00:37.000Z,28.7
2019-02-28T20:01:37.000Z,28.7
2019-02-28T20:02:37.000Z,28.8
2019-02-28T20:03:37.000Z,28.8
2019-02-28T20:04:37.000Z,28.9
2019-02-28T20:06:37.000Z,28.9
2019-02-28T20:08:37.000Z,28.8
2019-02-28T20:10:37.000Z,28.8
2019-02-28T20:12:37.000Z,28.7
2019-02-28T20:14:37.000Z,28.6
2019-02-28T20:15:37.000Z,28.6
2019-02-28T20:17:37.000Z,28.7
2019-02-28T20:19:37.000Z,28.7
2019-02-28T20:21:37.000Z,28.6
2019-02-28T20:23:37.000Z,28.5
2019-02-28T20:24:37.000Z,28.6
2019-02-28T20:26:37.000Z,28.6
2019-02-28T20:28:37.000Z,28.6
2019-02-28T20:29:37.000Z,28.6
2019-02-28T20:31:37.000Z,28.6
2019-02-28T20:32:37.000Z,28.6
2019-02-28T20:34:37.000Z,28.6
2019-02-28T20:36:37.000Z,28.5
2019-02-28T20:37:37.000Z,28.5
2019-02-28T20:39:37.000Z,28.6
2019-02-28T20:40:37.000Z,28.6
2019-02-28T20:42:37.000Z,28.7
2019-02-28T20:43:37.000Z,28.7
2019-02-28T20:45:37.000Z,28.7
2019-02-28T20:46:37.000Z,28.8
2019-02-28T20:47:37.000Z,28.8
2019-02-28T20:49:37.000Z,28.8
2019-02-28T20:50:37.000Z,28.9